Erving, Massachusetts
Current Conditions -  °F | °C
As of 1:41 AM on Sunday 21 Dec 2014 (Local Time) from KORE Reporting Station
Overcast Overcast  
Wind Chill: 24°   Ceiling: 2800
Heat Index: 30°   Visibility: 9mi
Dew Point: 27°   Wind: 6mph
Humidity: 88%   Direction: 340°NNW
Pressure: 30.27"   Gusts: NA
Location:  42.6°N, 72.4°W
Report Text: KORE 210641Z AUTO 34005KT 9SM OVC028 M01/M03 A3027 RMK AO2 T10111028
Loading
Personal Weather Stations






























Interactive Weather Map New forecast layout! Learn more

10-Day Weather Forecast

Advertisements
Track Severe Weather on mobile